createdAt,value
2016-12-14T00:00:13.138Z,0
2016-12-14T00:01:13.069Z,0
2016-12-14T00:02:13.084Z,0
2016-12-14T00:03:13.051Z,0
2016-12-14T00:04:13.007Z,0
2016-12-14T00:05:13.005Z,0
2016-12-14T00:06:12.997Z,0
2016-12-14T00:07:13.303Z,0
2016-12-14T00:08:12.961Z,0
2016-12-14T00:09:12.927Z,0
2016-12-14T00:10:12.899Z,0
2016-12-14T00:11:12.903Z,0
2016-12-14T00:12:12.875Z,0
2016-12-14T00:13:12.833Z,0
2016-12-14T00:14:12.834Z,0
2016-12-14T00:15:13.133Z,0
2016-12-14T00:16:12.774Z,0
2016-12-14T00:17:12.788Z,0
2016-12-14T00:18:12.746Z,0
2016-12-14T00:19:12.745Z,0
2016-12-14T00:20:12.728Z,0
2016-12-14T00:21:12.706Z,0
2016-12-14T00:22:12.654Z,0
2016-12-14T00:23:12.668Z,0
2016-12-14T00:24:12.636Z,0
2016-12-14T00:25:12.621Z,0
2016-12-14T00:26:12.612Z,0
2016-12-14T00:27:12.595Z,0
2016-12-14T00:28:12.565Z,0
2016-12-14T00:29:12.562Z,0
2016-12-14T00:30:12.498Z,0
2016-12-14T00:31:12.490Z,0
2016-12-14T00:32:12.480Z,0
2016-12-14T00:33:12.433Z,0
2016-12-14T00:34:12.444Z,0
2016-12-14T00:35:12.426Z,0
2016-12-14T00:36:12.378Z,0
2016-12-14T00:37:12.357Z,0
2016-12-14T00:38:12.324Z,0
2016-12-14T00:39:12.321Z,0
2016-12-14T00:40:12.306Z,0
2016-12-14T00:41:12.271Z,0
2016-12-14T00:42:12.246Z,0
2016-12-14T00:43:12.256Z,0
2016-12-14T00:44:12.230Z,0
2016-12-14T00:45:12.213Z,0
2016-12-14T00:46:12.165Z,0
2016-12-14T00:47:12.184Z,0
2016-12-14T00:48:12.182Z,0
2016-12-14T00:49:12.139Z,0
2016-12-14T00:50:12.106Z,0
2016-12-14T00:51:12.093Z,0
2016-12-14T00:52:12.065Z,0
2016-12-14T00:53:12.362Z,0
2016-12-14T00:54:12.036Z,0
2016-12-14T00:55:11.974Z,0
2016-12-14T00:56:11.956Z,0
2016-12-14T00:57:11.991Z,0
2016-12-14T00:58:11.930Z,0
2016-12-14T00:59:11.903Z,0
2016-12-14T01:00:11.911Z,0
2016-12-14T01:01:11.884Z,0
2016-12-14T01:02:11.832Z,0
2016-12-14T01:03:12.146Z,0
2016-12-14T01:04:11.829Z,0
2016-12-14T01:05:11.831Z,0
2016-12-14T01:06:11.756Z,0
2016-12-14T01:07:11.782Z,0
2016-12-14T01:08:11.718Z,0
2016-12-14T01:09:11.733Z,0
2016-12-14T01:10:11.676Z,0
2016-12-14T01:11:11.650Z,0
2016-12-14T01:12:11.632Z,0
2016-12-14T01:13:11.658Z,0
2016-12-14T01:14:11.578Z,0
2016-12-14T01:15:11.586Z,0
2016-12-14T01:16:11.551Z,0
2016-12-14T01:17:11.545Z,0
2016-12-14T01:18:11.515Z,0
2016-12-14T01:19:11.475Z,0
2016-12-14T01:20:11.475Z,0
2016-12-14T01:21:11.461Z,0
2016-12-14T01:22:11.421Z,0
2016-12-14T01:23:11.433Z,0
2016-12-14T01:24:11.409Z,0
2016-12-14T01:25:11.431Z,0
2016-12-14T01:26:11.364Z,0
2016-12-14T01:27:11.325Z,0
2016-12-14T01:28:11.628Z,0
2016-12-14T01:29:11.306Z,0
2016-12-14T01:30:11.292Z,0
2016-12-14T01:31:11.271Z,0
2016-12-14T01:32:11.529Z,0
2016-12-14T01:33:11.243Z,0
2016-12-14T01:34:11.197Z,0
2016-12-14T01:35:11.153Z,0
2016-12-14T01:36:11.135Z,0
2016-12-14T01:37:11.133Z,0
2016-12-14T01:38:11.108Z,0
2016-12-14T01:39:11.098Z,0
2016-12-14T01:40:11.053Z,0
2016-12-14T01:41:11.371Z,0
2016-12-14T01:42:11.038Z,0
2016-12-14T01:43:11.110Z,0
2016-12-14T01:44:10.994Z,0
2016-12-14T01:45:10.971Z,0
2016-12-14T01:46:10.948Z,0
2016-12-14T01:47:10.916Z,0
2016-12-14T01:48:10.900Z,0
2016-12-14T01:49:10.895Z,0
2016-12-14T01:50:10.862Z,0
2016-12-14T01:51:10.819Z,0
2016-12-14T01:52:10.840Z,0
2016-12-14T01:53:10.802Z,0
2016-12-14T01:54:10.784Z,0
2016-12-14T01:55:10.779Z,0
2016-12-14T01:56:10.728Z,0
2016-12-14T01:57:10.736Z,0
2016-12-14T01:58:10.735Z,0
2016-12-14T01:59:10.707Z,0
2016-12-14T02:00:10.653Z,0
2016-12-14T02:01:10.639Z,0
2016-12-14T02:02:10.632Z,0
2016-12-14T02:03:10.598Z,0
2016-12-14T02:04:10.578Z,0
2016-12-14T02:05:10.544Z,0
2016-12-14T02:06:10.530Z,0
2016-12-14T02:07:10.482Z,0
2016-12-14T02:08:10.506Z,0
2016-12-14T02:09:10.476Z,0
2016-12-14T02:10:10.476Z,0
2016-12-14T02:11:10.424Z,0
2016-12-14T02:12:10.420Z,0
2016-12-14T02:13:10.365Z,0
2016-12-14T02:14:10.375Z,0
2016-12-14T02:15:10.344Z,0
2016-12-14T02:16:10.331Z,0
2016-12-14T02:17:10.296Z,0
2016-12-14T02:18:10.308Z,0
2016-12-14T02:19:10.310Z,0
2016-12-14T02:20:10.242Z,0
2016-12-14T02:21:10.232Z,0
2016-12-14T02:22:10.175Z,0
2016-12-14T02:23:10.162Z,0
2016-12-14T02:24:10.175Z,0
2016-12-14T02:25:10.143Z,0
2016-12-14T02:26:10.093Z,0
2016-12-14T02:27:10.094Z,0
2016-12-14T02:28:10.088Z,0
2016-12-14T02:29:10.050Z,0
2016-12-14T02:30:10.046Z,0
2016-12-14T02:31:10.033Z,0
2016-12-14T02:32:09.992Z,0
2016-12-14T02:33:09.975Z,0
2016-12-14T02:34:10.300Z,0
2016-12-14T02:35:09.927Z,0
2016-12-14T02:36:10.211Z,0
2016-12-14T02:37:09.895Z,0
2016-12-14T02:38:09.865Z,0
2016-12-14T02:39:09.854Z,0
2016-12-14T02:40:09.825Z,0
2016-12-14T02:41:09.840Z,0
2016-12-14T02:42:09.809Z,0
2016-12-14T02:43:09.809Z,0
2016-12-14T02:44:09.747Z,0
2016-12-14T02:45:09.717Z,0
2016-12-14T02:46:10.037Z,0
2016-12-14T02:47:09.696Z,0
2016-12-14T02:48:09.671Z,0
2016-12-14T02:49:09.676Z,0
2016-12-14T02:50:09.639Z,0
2016-12-14T02:51:09.605Z,0
2016-12-14T02:52:09.579Z,0
2016-12-14T02:53:09.582Z,0
2016-12-14T02:54:09.550Z,0
2016-12-14T02:55:09.544Z,0
2016-12-14T02:56:09.524Z,0
2016-12-14T02:57:09.521Z,0
2016-12-14T02:58:09.483Z,0
2016-12-14T02:59:09.490Z,0
2016-12-14T03:00:09.449Z,0
2016-12-14T03:01:09.393Z,0
2016-12-14T03:02:09.409Z,0
2016-12-14T03:03:09.375Z,0
2016-12-14T03:04:09.361Z,0
2016-12-14T03:05:09.346Z,0
2016-12-14T03:06:09.341Z,0
2016-12-14T03:07:09.314Z,0
2016-12-14T03:08:09.263Z,0
2016-12-14T03:09:09.274Z,0
2016-12-14T03:10:09.534Z,0
2016-12-14T03:11:09.182Z,0
2016-12-14T03:12:09.208Z,0
2016-12-14T03:13:09.226Z,0
2016-12-14T03:14:09.165Z,0
2016-12-14T03:15:09.125Z,0
2016-12-14T03:16:09.121Z,0
2016-12-14T03:17:09.110Z,0
2016-12-14T03:18:09.060Z,0
2016-12-14T03:19:09.051Z,0
2016-12-14T03:20:09.017Z,0
2016-12-14T03:21:09.017Z,0
2016-12-14T03:22:08.996Z,0
2016-12-14T03:23:08.953Z,0
2016-12-14T03:24:09.282Z,0
2016-12-14T03:25:09.037Z,0
2016-12-14T03:26:08.894Z,0
2016-12-14T03:27:08.899Z,0
2016-12-14T03:28:08.889Z,0
2016-12-14T03:29:08.854Z,0
2016-12-14T03:30:08.804Z,0
2016-12-14T03:31:08.832Z,0
2016-12-14T03:32:08.771Z,0
2016-12-14T03:33:08.784Z,0
2016-12-14T03:34:08.769Z,0
2016-12-14T03:35:08.729Z,0
2016-12-14T03:36:08.708Z,0
2016-12-14T03:37:08.678Z,0
2016-12-14T03:38:08.690Z,0
2016-12-14T03:39:08.659Z,0
2016-12-14T03:40:08.596Z,0
2016-12-14T03:41:08.584Z,0
2016-12-14T03:42:08.596Z,0
2016-12-14T03:43:08.562Z,0
2016-12-14T03:44:08.553Z,0
2016-12-14T03:45:08.509Z,0
2016-12-14T03:46:08.522Z,0
2016-12-14T03:47:08.507Z,0
2016-12-14T03:48:08.475Z,0
2016-12-14T03:49:08.442Z,0
2016-12-14T03:50:08.449Z,0
2016-12-14T03:51:08.411Z,0
2016-12-14T03:52:08.391Z,0
2016-12-14T03:53:08.658Z,0
2016-12-14T03:54:08.351Z,0
2016-12-14T03:55:08.322Z,0
2016-12-14T03:56:08.303Z,0
2016-12-14T03:57:08.298Z,0
2016-12-14T03:58:08.265Z,0
2016-12-14T03:59:08.256Z,0
2016-12-14T04:00:08.210Z,0
2016-12-14T04:01:08.178Z,0
2016-12-14T04:02:08.185Z,0
2016-12-14T04:03:08.149Z,0
2016-12-14T04:04:08.137Z,0
2016-12-14T04:05:08.123Z,0
2016-12-14T04:06:08.097Z,0
2016-12-14T04:07:08.108Z,0
2016-12-14T04:08:08.046Z,0
2016-12-14T04:09:08.029Z,0
2016-12-14T04:10:08.040Z,0
2016-12-14T04:11:08.009Z,0
2016-12-14T04:12:07.975Z,0
2016-12-14T04:13:07.954Z,0
2016-12-14T04:14:07.934Z,0
2016-12-14T04:15:07.918Z,0
2016-12-14T04:16:07.894Z,0
2016-12-14T04:17:07.862Z,0
2016-12-14T04:18:07.872Z,0
2016-12-14T04:19:07.849Z,0
2016-12-14T04:20:07.827Z,0
2016-12-14T04:21:07.820Z,0
2016-12-14T04:22:07.761Z,0
2016-12-14T04:23:07.739Z,0
2016-12-14T04:24:07.754Z,0
2016-12-14T04:25:07.720Z,0
2016-12-14T04:26:07.702Z,0
2016-12-14T04:27:07.665Z,0
2016-12-14T04:28:07.670Z,0
2016-12-14T04:29:07.668Z,0
2016-12-14T04:30:07.605Z,0
2016-12-14T04:31:07.599Z,0
2016-12-14T04:32:07.560Z,0
2016-12-14T04:33:07.550Z,0
2016-12-14T04:34:07.551Z,0
2016-12-14T04:35:07.542Z,0
2016-12-14T04:36:07.507Z,0
2016-12-14T04:37:07.502Z,0
2016-12-14T04:38:07.458Z,0
2016-12-14T04:39:07.448Z,0
2016-12-14T04:40:07.407Z,0
2016-12-14T04:41:07.395Z,0
2016-12-14T04:42:07.379Z,0
2016-12-14T04:43:07.341Z,0
2016-12-14T04:44:07.328Z,0
2016-12-14T04:45:07.302Z,0
2016-12-14T04:46:07.270Z,0
2016-12-14T04:47:07.289Z,0
2016-12-14T04:48:07.578Z,0
2016-12-14T04:49:07.240Z,0
2016-12-14T04:50:07.221Z,0
2016-12-14T04:51:07.209Z,0
2016-12-14T04:52:07.194Z,0
2016-12-14T04:53:07.166Z,0
2016-12-14T04:54:07.146Z,0
2016-12-14T04:55:07.120Z,0
2016-12-14T04:56:07.100Z,0
2016-12-14T04:57:07.091Z,0
2016-12-14T04:58:07.049Z,0
2016-12-14T04:59:07.040Z,0
2016-12-14T05:00:07.053Z,0
2016-12-14T05:01:06.996Z,0
2016-12-14T05:02:06.985Z,0
2016-12-14T05:03:06.955Z,0
2016-12-14T05:04:06.941Z,0
2016-12-14T05:05:06.939Z,0
2016-12-14T05:06:06.916Z,0
2016-12-14T05:07:06.875Z,0
2016-12-14T05:08:06.857Z,0
2016-12-14T05:09:06.841Z,0
2016-12-14T05:10:07.155Z,0
2016-12-14T05:11:06.801Z,0
2016-12-14T05:12:06.781Z,0
2016-12-14T05:13:06.766Z,0
2016-12-14T05:14:06.728Z,0
2016-12-14T05:15:06.720Z,0
2016-12-14T05:16:06.698Z,0
2016-12-14T05:17:06.692Z,0
2016-12-14T05:18:06.643Z,0
2016-12-14T05:19:06.653Z,0
2016-12-14T05:20:06.633Z,0
2016-12-14T05:21:06.597Z,0
2016-12-14T05:22:06.562Z,0
2016-12-14T05:23:06.534Z,0
2016-12-14T05:24:06.549Z,0
2016-12-14T05:25:06.516Z,0
2016-12-14T05:26:06.484Z,0
2016-12-14T05:27:06.456Z,0
2016-12-14T05:28:06.453Z,0
2016-12-14T05:29:06.420Z,0
2016-12-14T05:30:06.411Z,0
2016-12-14T05:31:06.383Z,0
2016-12-14T05:32:06.394Z,0
2016-12-14T05:33:06.366Z,0
2016-12-14T05:34:06.356Z,0
2016-12-14T05:35:06.324Z,0
2016-12-14T05:36:06.318Z,0
2016-12-14T05:37:06.247Z,0
2016-12-14T05:38:06.228Z,0
2016-12-14T05:39:06.216Z,0
2016-12-14T05:40:06.199Z,0
2016-12-14T05:41:06.172Z,0
2016-12-14T05:42:06.166Z,0
2016-12-14T05:43:06.127Z,0
2016-12-14T05:44:06.153Z,0
2016-12-14T05:45:06.085Z,0
2016-12-14T05:46:06.422Z,0
2016-12-14T05:47:06.087Z,0
2016-12-14T05:48:06.060Z,0
2016-12-14T05:49:06.017Z,0
2016-12-14T05:50:05.986Z,0
2016-12-14T05:51:06.062Z,0
2016-12-14T05:52:05.954Z,0
2016-12-14T05:53:06.254Z,0
2016-12-14T05:54:05.940Z,0
2016-12-14T05:55:05.889Z,0
2016-12-14T05:56:05.886Z,0
2016-12-14T05:57:05.861Z,0
2016-12-14T05:58:05.838Z,0
2016-12-14T05:59:05.841Z,0
2016-12-14T06:00:06.086Z,0
2016-12-14T06:01:05.785Z,0
2016-12-14T06:02:05.748Z,0
2016-12-14T06:03:05.720Z,0
2016-12-14T06:04:05.725Z,0
2016-12-14T06:05:05.693Z,0
2016-12-14T06:06:05.689Z,0
2016-12-14T06:07:05.646Z,0
2016-12-14T06:08:05.612Z,0
2016-12-14T06:09:05.603Z,0
2016-12-14T06:10:05.891Z,0
2016-12-14T06:11:05.577Z,0
2016-12-14T06:12:05.558Z,0
2016-12-14T06:13:05.552Z,0
2016-12-14T06:14:05.517Z,0
2016-12-14T06:15:05.503Z,0
2016-12-14T06:16:05.483Z,0
2016-12-14T06:17:05.489Z,0
2016-12-14T06:18:05.442Z,0
2016-12-14T06:19:05.437Z,0
2016-12-14T06:20:05.406Z,0
2016-12-14T06:21:05.382Z,0
2016-12-14T06:22:05.367Z,0
2016-12-14T06:23:05.350Z,0
2016-12-14T06:24:05.333Z,0
2016-12-14T06:25:05.295Z,0
2016-12-14T06:26:05.586Z,0
2016-12-14T06:27:05.277Z,0
2016-12-14T06:28:05.228Z,0
2016-12-14T06:29:05.262Z,0
2016-12-14T06:30:05.222Z,0
2016-12-14T06:31:05.202Z,0
2016-12-14T06:32:05.161Z,0
2016-12-14T06:33:05.128Z,0
2016-12-14T06:34:05.132Z,0
2016-12-14T06:35:05.096Z,0
2016-12-14T06:36:05.101Z,0
2016-12-14T06:37:05.402Z,0
2016-12-14T06:38:05.035Z,0
2016-12-14T06:39:05.030Z,0
2016-12-14T06:40:04.985Z,0
2016-12-14T06:41:04.995Z,0
2016-12-14T06:42:04.981Z,5
2016-12-14T06:43:04.967Z,5
2016-12-14T06:44:04.926Z,5
2016-12-14T06:45:04.884Z,5
2016-12-14T06:46:04.870Z,5
2016-12-14T06:47:04.906Z,5
2016-12-14T06:48:04.852Z,10
2016-12-14T06:49:04.817Z,10
2016-12-14T06:50:04.799Z,10
2016-12-14T06:51:04.800Z,10
2016-12-14T06:52:04.764Z,15
2016-12-14T06:53:04.744Z,15
2016-12-14T06:54:04.737Z,15
2016-12-14T06:55:04.687Z,20
2016-12-14T06:56:04.682Z,20
2016-12-14T06:57:05.314Z,20
2016-12-14T06:58:04.692Z,20
2016-12-14T06:59:04.638Z,20
2016-12-14T07:00:04.640Z,20
2016-12-14T07:01:04.610Z,25
2016-12-14T07:02:04.576Z,25
2016-12-14T07:03:04.567Z,25
2016-12-14T07:04:04.556Z,30
2016-12-14T07:05:04.504Z,30
2016-12-14T07:06:04.514Z,35
2016-12-14T07:07:04.456Z,35
2016-12-14T07:08:04.469Z,40
2016-12-14T07:09:04.434Z,45
2016-12-14T07:10:04.444Z,45
2016-12-14T07:11:04.405Z,50
2016-12-14T07:12:04.395Z,50
2016-12-14T07:13:04.692Z,55
2016-12-14T07:14:04.345Z,60
2016-12-14T07:15:04.322Z,70
2016-12-14T07:16:04.303Z,75
2016-12-14T07:17:04.296Z,75
2016-12-14T07:18:04.313Z,80
2016-12-14T07:19:04.245Z,85
2016-12-14T07:20:04.227Z,90
2016-12-14T07:21:04.223Z,95
2016-12-14T07:22:04.219Z,95
2016-12-14T07:23:04.180Z,100
2016-12-14T07:24:04.168Z,105
2016-12-14T07:25:04.111Z,105
2016-12-14T07:26:04.108Z,115
2016-12-14T07:27:04.093Z,125
2016-12-14T07:28:04.043Z,130
2016-12-14T07:29:04.055Z,130
2016-12-14T07:30:04.017Z,130
2016-12-14T07:31:04.010Z,130
2016-12-14T07:32:03.992Z,135
2016-12-14T07:33:04.301Z,145
2016-12-14T07:34:03.920Z,150
2016-12-14T07:35:03.911Z,150
2016-12-14T07:36:03.933Z,145
2016-12-14T07:37:03.892Z,145
2016-12-14T07:38:03.890Z,155
2016-12-14T07:39:03.849Z,160
2016-12-14T07:40:03.849Z,160
2016-12-14T07:41:03.800Z,170
2016-12-14T07:42:03.974Z,175
2016-12-14T07:43:03.959Z,175
2016-12-14T07:44:03.739Z,170
2016-12-14T07:45:03.741Z,170
2016-12-14T07:46:04.020Z,175
2016-12-14T07:47:03.659Z,180
2016-12-14T07:48:03.672Z,185
2016-12-14T07:49:03.632Z,190
2016-12-14T07:50:03.629Z,205
2016-12-14T07:51:03.625Z,235
2016-12-14T07:52:03.593Z,230
2016-12-14T07:53:03.568Z,245
2016-12-14T07:54:03.566Z,265
2016-12-14T07:55:03.522Z,255
2016-12-14T07:56:03.540Z,265
2016-12-14T07:57:03.493Z,320
2016-12-14T07:58:03.501Z,320
2016-12-14T07:59:03.476Z,340
2016-12-14T08:00:03.431Z,335
2016-12-14T08:01:03.398Z,300
2016-12-14T08:02:03.395Z,320
2016-12-14T08:03:03.374Z,350
2016-12-14T08:04:03.385Z,335
2016-12-14T08:05:03.372Z,345
2016-12-14T08:06:03.302Z,355
2016-12-14T08:07:03.317Z,380
2016-12-14T08:08:03.472Z,365
2016-12-14T08:09:03.242Z,380
2016-12-14T08:10:03.433Z,395
2016-12-14T08:11:03.231Z,385
2016-12-14T08:12:03.426Z,400
2016-12-14T08:13:03.177Z,470
2016-12-14T08:14:03.187Z,515
2016-12-14T08:15:03.140Z,520
2016-12-14T08:16:03.110Z,530
2016-12-14T08:17:03.102Z,530
2016-12-14T08:18:03.076Z,495
2016-12-14T08:19:03.366Z,555
2016-12-14T08:20:03.045Z,510
2016-12-14T08:21:03.066Z,475
2016-12-14T08:22:03.002Z,470
2016-12-14T08:23:02.979Z,510
2016-12-14T08:24:02.949Z,550
2016-12-14T08:25:02.921Z,510
2016-12-14T08:26:02.927Z,510
2016-12-14T08:27:02.919Z,540
2016-12-14T08:28:02.882Z,620
2016-12-14T08:29:02.872Z,615
2016-12-14T08:30:03.176Z,590
2016-12-14T08:31:02.804Z,555
2016-12-14T08:32:02.819Z,785
2016-12-14T08:33:02.777Z,560
2016-12-14T08:34:02.998Z,925
2016-12-14T08:35:02.755Z,585
2016-12-14T08:36:02.703Z,600
2016-12-14T08:37:02.692Z,635
2016-12-14T08:38:02.907Z,1260
2016-12-14T08:39:02.916Z,685
2016-12-14T08:40:02.651Z,665
2016-12-14T08:41:02.608Z,715
2016-12-14T08:42:02.605Z,685
2016-12-14T08:43:02.611Z,715
2016-12-14T08:44:02.578Z,760
2016-12-14T08:45:02.544Z,680
2016-12-14T08:46:02.521Z,640
2016-12-14T08:47:02.495Z,665
2016-12-14T08:48:02.511Z,740
2016-12-14T08:49:02.783Z,825
2016-12-14T08:50:02.440Z,770
2016-12-14T08:51:02.400Z,750
2016-12-14T08:52:02.409Z,730
2016-12-14T08:53:02.393Z,585
2016-12-14T08:54:02.363Z,610
2016-12-14T08:55:02.367Z,740
2016-12-14T08:56:02.321Z,720
2016-12-14T08:57:02.644Z,705
2016-12-14T08:58:02.353Z,750
2016-12-14T08:59:02.287Z,710
2016-12-14T09:00:02.250Z,680
2016-12-14T09:01:02.236Z,715
2016-12-14T09:02:02.408Z,780
2016-12-14T09:03:02.221Z,815
2016-12-14T09:04:02.190Z,810
2016-12-14T09:05:02.148Z,745
2016-12-14T09:06:02.179Z,725
2016-12-14T09:07:02.311Z,800
2016-12-14T09:08:02.101Z,885
2016-12-14T09:09:02.099Z,995
2016-12-14T09:10:02.084Z,990
2016-12-14T09:11:02.050Z,930
2016-12-14T09:12:02.039Z,1045
2016-12-14T09:13:02.010Z,1060
2016-12-14T09:14:01.998Z,1025
2016-12-14T09:15:02.296Z,1035
2016-12-14T09:16:01.971Z,1025
2016-12-14T09:17:01.956Z,1025
2016-12-14T09:18:01.946Z,955
2016-12-14T09:19:02.373Z,895
2016-12-14T09:20:01.885Z,830
2016-12-14T09:21:01.857Z,750
2016-12-14T09:22:01.862Z,720
2016-12-14T09:23:01.819Z,760
2016-12-14T09:24:01.802Z,860
2016-12-14T09:25:01.776Z,985
2016-12-14T09:26:01.847Z,1075
2016-12-14T09:27:01.736Z,1090
2016-12-14T09:28:01.728Z,1120
2016-12-14T09:29:01.735Z,1010
2016-12-14T09:30:01.731Z,1010
2016-12-14T09:31:01.648Z,995
2016-12-14T09:32:01.690Z,970
2016-12-14T09:33:01.616Z,875
2016-12-14T09:34:01.614Z,785
2016-12-14T09:35:01.808Z,790
2016-12-14T09:36:01.800Z,870
2016-12-14T09:37:01.528Z,965
2016-12-14T09:38:01.555Z,1070
2016-12-14T09:39:01.530Z,1170
2016-12-14T09:40:01.483Z,1175
2016-12-14T09:41:01.513Z,1265
2016-12-14T09:42:01.455Z,990
2016-12-14T09:43:01.436Z,840
2016-12-14T09:44:01.434Z,700
2016-12-14T09:45:01.397Z,580
2016-12-14T09:46:01.391Z,565
2016-12-14T09:47:01.367Z,625
2016-12-14T09:48:01.354Z,780
2016-12-14T09:49:01.351Z,830
2016-12-14T09:50:01.339Z,1210
2016-12-14T09:51:01.276Z,1190
2016-12-14T09:52:01.289Z,950
2016-12-14T09:53:01.264Z,865
2016-12-14T09:54:01.253Z,940
2016-12-14T09:55:01.224Z,980
2016-12-14T09:56:01.198Z,1050
2016-12-14T09:57:01.178Z,1030
2016-12-14T09:58:01.177Z,995
2016-12-14T09:59:01.160Z,1055
2016-12-14T10:00:01.105Z,1080
2016-12-14T10:01:01.101Z,1075
2016-12-14T10:02:01.093Z,1075
2016-12-14T10:03:01.255Z,1075
2016-12-14T10:04:01.582Z,1030
2016-12-14T10:05:01.026Z,1035
2016-12-14T10:06:00.992Z,1075
2016-12-14T10:07:00.997Z,1090
2016-12-14T10:08:00.966Z,985
2016-12-14T10:09:00.964Z,950
2016-12-14T10:10:00.908Z,955
2016-12-14T10:11:00.935Z,1050
2016-12-14T10:12:00.919Z,1150
2016-12-14T10:13:00.891Z,1205
2016-12-14T10:14:00.872Z,1245
2016-12-14T10:15:00.859Z,1260
2016-12-14T10:16:00.838Z,1215
2016-12-14T10:17:01.135Z,1080
2016-12-14T10:18:00.769Z,1010
2016-12-14T10:19:00.774Z,955
2016-12-14T10:20:00.750Z,950
2016-12-14T10:21:00.738Z,1030
2016-12-14T10:22:00.735Z,1150
2016-12-14T10:23:00.715Z,1275
2016-12-14T10:24:00.697Z,1350
2016-12-14T10:25:00.669Z,1395
2016-12-14T10:26:00.672Z,1650
2016-12-14T10:27:00.648Z,1700
2016-12-14T10:28:00.632Z,2150
2016-12-14T10:29:00.594Z,2695
2016-12-14T10:30:00.582Z,2450
2016-12-14T10:31:00.564Z,1815
2016-12-14T10:32:00.737Z,2225
2016-12-14T10:33:00.502Z,1680
2016-12-14T10:34:00.514Z,1410
2016-12-14T10:35:00.489Z,1180
2016-12-14T10:36:00.446Z,1175
2016-12-14T10:37:00.444Z,1255
2016-12-14T10:38:00.411Z,1210
2016-12-14T10:39:00.400Z,1185
2016-12-14T10:40:00.384Z,1125
2016-12-14T10:41:00.359Z,1335
2016-12-14T10:42:00.354Z,1450
2016-12-14T10:43:00.353Z,1470
2016-12-14T10:44:00.338Z,1420
2016-12-14T10:45:00.318Z,1335
2016-12-14T10:46:00.304Z,1425
2016-12-14T10:47:00.263Z,1390
2016-12-14T10:48:00.547Z,1255
2016-12-14T10:49:00.222Z,1245
2016-12-14T10:50:00.237Z,1280
2016-12-14T10:51:00.178Z,1195
2016-12-14T10:52:00.195Z,1200
2016-12-14T10:53:00.167Z,1250
2016-12-14T10:54:00.129Z,1310
2016-12-14T10:55:00.119Z,1270
2016-12-14T10:56:00.116Z,1260
2016-12-14T10:57:00.072Z,1260
2016-12-14T10:58:00.353Z,1275
2016-12-14T10:59:00.047Z,1340
2016-12-14T11:00:00.000Z,1340
2016-12-14T11:01:00.245Z,1410
2016-12-14T11:01:59.989Z,1530
2016-12-14T11:02:59.971Z,1525
2016-12-14T11:03:59.956Z,1590
2016-12-14T11:04:59.922Z,1430
2016-12-14T11:05:59.921Z,1330
2016-12-14T11:07:00.227Z,1410
2016-12-14T11:07:59.864Z,1350
2016-12-14T11:08:59.857Z,1275
2016-12-14T11:09:59.834Z,1260
2016-12-14T11:10:59.827Z,1270
2016-12-14T11:11:59.825Z,1290
2016-12-14T11:12:59.809Z,1265
2016-12-14T11:13:59.765Z,1290
2016-12-14T11:14:59.771Z,1270
2016-12-14T11:15:59.735Z,1265
2016-12-14T11:16:59.736Z,1510
2016-12-14T11:17:59.713Z,1395
2016-12-14T11:18:59.674Z,1540
2016-12-14T11:19:59.662Z,1505
2016-12-14T11:20:59.673Z,1200
2016-12-14T11:21:59.653Z,1220
2016-12-14T11:22:59.622Z,1250
2016-12-14T11:23:59.594Z,1430
2016-12-14T11:24:59.588Z,2040
2016-12-14T11:25:59.552Z,1560
2016-12-14T11:26:59.528Z,1620
2016-12-14T11:27:59.531Z,1410
2016-12-14T11:28:59.506Z,1635
2016-12-14T11:29:59.476Z,1610
2016-12-14T11:30:59.492Z,1425
2016-12-14T11:31:59.463Z,1190
2016-12-14T11:32:59.444Z,1310
2016-12-14T11:33:59.444Z,1420
2016-12-14T11:34:59.409Z,1655
2016-12-14T11:35:59.396Z,1335
2016-12-14T11:36:59.369Z,1610
2016-12-14T11:37:59.353Z,1460
2016-12-14T11:38:59.341Z,1665
2016-12-14T11:39:59.320Z,1900
2016-12-14T11:40:59.333Z,1455
2016-12-14T11:41:59.289Z,1780
2016-12-14T11:42:59.281Z,1600
2016-12-14T11:43:59.249Z,1635
2016-12-14T11:44:59.229Z,1810
2016-12-14T11:45:59.366Z,1660
2016-12-14T11:46:59.175Z,1675
2016-12-14T11:47:59.172Z,1600
2016-12-14T11:48:59.182Z,1325
2016-12-14T11:49:59.147Z,1445
2016-12-14T11:50:59.150Z,1655
2016-12-14T11:51:59.148Z,1845
2016-12-14T11:52:59.089Z,2050
2016-12-14T11:53:59.086Z,1655
2016-12-14T11:54:59.098Z,1790
2016-12-14T11:55:59.100Z,1780
2016-12-14T11:56:59.051Z,1765
2016-12-14T11:57:59.017Z,1760
2016-12-14T11:58:59.002Z,1610
2016-12-14T11:59:59.011Z,1545
2016-12-14T12:00:58.965Z,1590
2016-12-14T12:01:58.953Z,1620
2016-12-14T12:02:58.909Z,1590
2016-12-14T12:03:58.896Z,1560
2016-12-14T12:04:58.876Z,1560
2016-12-14T12:05:58.862Z,1565
2016-12-14T12:06:58.845Z,1700
2016-12-14T12:07:58.830Z,1755
2016-12-14T12:08:58.815Z,1495
2016-12-14T12:09:58.801Z,1405
2016-12-14T12:10:59.111Z,1450
2016-12-14T12:11:59.072Z,1535
2016-12-14T12:12:59.072Z,1535
2016-12-14T12:13:58.743Z,1480
2016-12-14T12:14:58.726Z,1625
2016-12-14T12:15:58.728Z,1680
2016-12-14T12:16:58.700Z,1610
2016-12-14T12:17:58.684Z,1610
2016-12-14T12:18:58.671Z,1530
2016-12-14T12:19:58.657Z,1370
2016-12-14T12:20:58.642Z,1460
2016-12-14T12:21:58.631Z,1520
2016-12-14T12:22:58.622Z,1420
2016-12-14T12:23:58.616Z,1535
2016-12-14T12:24:58.585Z,1600
2016-12-14T12:25:58.575Z,1615
2016-12-14T12:26:58.559Z,1620
2016-12-14T12:27:58.549Z,1645
2016-12-14T12:28:58.564Z,1695
2016-12-14T12:29:58.519Z,1580
2016-12-14T12:30:58.508Z,1420
2016-12-14T12:31:58.493Z,1545
2016-12-14T12:32:58.478Z,1725
2016-12-14T12:33:58.467Z,1865
2016-12-14T12:34:58.458Z,1730
2016-12-14T12:35:58.436Z,1550
2016-12-14T12:36:58.431Z,1570
2016-12-14T12:37:58.411Z,1520
2016-12-14T12:38:58.393Z,1505
2016-12-14T12:39:58.383Z,1455
2016-12-14T12:40:58.367Z,1505
2016-12-14T12:41:58.357Z,1615
2016-12-14T12:42:58.344Z,1455
2016-12-14T12:43:58.329Z,1340
2016-12-14T12:44:58.317Z,1365
2016-12-14T12:45:58.303Z,1425
2016-12-14T12:46:58.316Z,1405
2016-12-14T12:47:58.280Z,1315
2016-12-14T12:48:58.261Z,1515
2016-12-14T12:49:58.253Z,1545
2016-12-14T12:50:58.236Z,1400
2016-12-14T12:51:58.221Z,1435
2016-12-14T12:52:58.215Z,1445
2016-12-14T12:53:58.195Z,1320
2016-12-14T12:54:58.214Z,1075
2016-12-14T12:55:58.168Z,1200
2016-12-14T12:56:58.205Z,1505
2016-12-14T12:57:58.142Z,1585
2016-12-14T12:58:58.127Z,1465
2016-12-14T12:59:58.112Z,1250
2016-12-14T13:00:58.103Z,1245
2016-12-14T13:01:58.088Z,1230
2016-12-14T13:02:58.090Z,1335
2016-12-14T13:03:58.064Z,1440
2016-12-14T13:04:58.052Z,1445
2016-12-14T13:05:58.030Z,1490
2016-12-14T13:06:58.018Z,1535
2016-12-14T13:07:58.003Z,1440
2016-12-14T13:08:58.015Z,1395
2016-12-14T13:09:57.973Z,1555
2016-12-14T13:10:57.966Z,1570
2016-12-14T13:11:57.951Z,1405
2016-12-14T13:12:57.935Z,1320
2016-12-14T13:13:57.926Z,1225
2016-12-14T13:14:57.903Z,1165
2016-12-14T13:15:57.903Z,1080
2016-12-14T13:16:57.878Z,995
2016-12-14T13:17:57.863Z,1025
2016-12-14T13:18:57.854Z,1145
2016-12-14T13:19:57.853Z,1150
2016-12-14T13:20:57.826Z,1145
2016-12-14T13:21:57.804Z,1140
2016-12-14T13:22:57.798Z,1150
2016-12-14T13:23:57.787Z,1200
2016-12-14T13:24:57.768Z,1245
2016-12-14T13:25:57.777Z,1215
2016-12-14T13:26:57.740Z,1145
2016-12-14T13:27:57.722Z,1185
2016-12-14T13:28:57.707Z,1220
2016-12-14T13:29:57.697Z,1170
2016-12-14T13:30:57.678Z,1150
2016-12-14T13:31:57.964Z,1210
2016-12-14T13:32:57.656Z,1250
2016-12-14T13:33:57.640Z,1210
2016-12-14T13:34:57.628Z,1220
2016-12-14T13:35:57.608Z,1300
2016-12-14T13:36:57.595Z,1235
2016-12-14T13:37:57.885Z,1070
2016-12-14T13:38:57.565Z,1065
2016-12-14T13:39:57.555Z,1055
2016-12-14T13:40:57.545Z,1055
2016-12-14T13:41:57.523Z,1130
2016-12-14T13:42:57.513Z,1100
2016-12-14T13:43:57.503Z,1100
2016-12-14T13:44:57.485Z,1145
2016-12-14T13:45:57.484Z,1270
2016-12-14T13:46:57.456Z,1375
2016-12-14T13:47:57.442Z,1290
2016-12-14T13:48:57.427Z,1120
2016-12-14T13:49:57.417Z,965
2016-12-14T13:50:57.401Z,915
2016-12-14T13:51:57.392Z,735
2016-12-14T13:52:57.375Z,595
2016-12-14T13:53:57.362Z,525
2016-12-14T13:54:57.353Z,480
2016-12-14T13:55:57.333Z,420
2016-12-14T13:56:57.321Z,365
2016-12-14T13:57:57.312Z,320
2016-12-14T13:58:57.290Z,295
2016-12-14T13:59:57.594Z,290
2016-12-14T14:00:57.262Z,280
2016-12-14T14:01:57.254Z,275
2016-12-14T14:02:57.236Z,270
2016-12-14T14:03:57.233Z,270
2016-12-14T14:04:57.209Z,265
2016-12-14T14:05:57.191Z,265